Time;durP1;ratioP1;P1;durP2;ratioP2;P2;SDS_P1;SDS_P2;PMS_P1;PMS_P2;Temp;Humidity;BMP_temperature;BMP_pressure;BME280_temperature;BME280_humidity;BME280_pressure;Samples;Min_cycle;Max_cycle;Signal;HPM_P1;HPM_P2
2023/10/14 00:01:13;;;;;;;7.37;5.70;;;;;;;-148.82;100.00;60434.72;5055217;28;20252;-69
2023/10/14 00:03:43;;;;;;;6.63;4.73;;;;;;;-148.82;100.00;60434.72;5057165;28;20198;-69
2023/10/14 00:06:12;;;;;;;7.93;5.17;;;;;;;-148.82;100.00;60434.72;5052111;28;20792;-70
2023/10/14 00:08:48;;;;;;;5.37;4.87;;;;;;;-148.82;100.00;60434.72;5053763;28;20226;-69
2023/10/14 00:11:17;;;;;;;9.13;5.30;;;;;;;-148.82;100.00;60434.72;4996402;28;20308;-69
2023/10/14 00:13:48;;;;;;;6.10;4.97;;;;;;;-148.82;100.00;60434.72;5056718;28;20199;-70
2023/10/14 00:16:35;;;;;;;5.47;4.60;;;;;;;-148.82;100.00;60434.72;5051015;28;20217;-71
2023/10/14 00:19:04;;;;;;;5.23;4.83;;;;;;;;;;5051400;28;20751;-70
2023/10/14 00:21:34;;;;;;;11.27;5.33;;;;;;;;;;4937594;28;20842;-70
2023/10/14 00:24:03;;;;;;;6.07;5.00;;;;;;;-148.82;100.00;60434.72;5057039;28;20195;-71
2023/10/14 00:26:32;;;;;;;7.80;4.80;;;;;;;-148.82;100.00;60434.72;5054452;28;20621;-71
2023/10/14 00:29:16;;;;;;;5.20;4.40;;;;;;;-148.82;100.00;60434.72;5060007;28;20250;-71
2023/10/14 00:31:44;;;;;;;7.93;5.07;;;;;;;-148.82;100.00;60434.72;5053759;28;20238;-71
2023/10/14 00:34:14;;;;;;;7.10;4.67;;;;;;;-148.82;100.00;60434.72;5056439;28;20290;-70
2023/10/14 00:36:42;;;;;;;6.00;5.17;;;;;;;-148.82;100.00;60434.72;5055338;28;20215;-70
2023/10/14 00:39:13;;;;;;;4.57;4.17;;;;;;;-148.82;100.00;60434.72;5056530;28;20242;-69
2023/10/14 00:41:43;;;;;;;9.00;5.20;;;;;;;-148.82;100.00;60434.72;5057304;28;21203;-70
2023/10/14 00:44:10;;;;;;;9.07;5.37;;;;;;;;;;5060868;28;20256;-70
2023/10/14 00:46:42;;;;;;;5.73;5.03;;;;;;;-148.82;100.00;60434.72;4995305;28;20748;-71
2023/10/14 00:49:11;;;;;;;7.40;4.70;;;;;;;-148.82;100.00;60434.72;5060055;28;20709;-69
2023/10/14 00:51:43;;;;;;;6.30;4.90;;;;;;;-148.82;100.00;60434.72;5055346;28;20314;-68
2023/10/14 00:54:12;;;;;;;5.87;5.13;;;;;;;-148.82;100.00;60434.72;5057453;28;20360;-71
2023/10/14 00:56:41;;;;;;;6.80;5.10;;;;;;;-148.82;100.00;60434.72;4939257;28;20254;-68
2023/10/14 00:59:10;;;;;;;5.40;4.53;;;;;;;-148.82;100.00;60434.72;5059883;28;20239;-71
2023/10/14 01:01:55;;;;;;;5.10;4.60;;;;;;;-148.82;100.00;60434.72;4995103;28;20213;-69
2023/10/14 01:04:31;;;;;;;5.60;5.03;;;;;;;-148.82;100.00;60434.72;5056058;28;20282;-72
2023/10/14 01:07:04;;;;;;;6.50;5.67;;;;;;;-148.82;100.00;60434.72;5057281;28;20480;-72
2023/10/14 01:09:49;;;;;;;5.37;4.57;;;;;;;-148.82;100.00;60434.72;5047069;28;20211;-70
2023/10/14 01:12:25;;;;;;;7.17;5.37;;;;;;;-148.82;100.00;60434.72;5015346;28;20217;-69
2023/10/14 01:14:53;;;;;;;6.90;4.90;;;;;;;-148.82;100.00;60434.72;5020105;28;20226;-71
2023/10/14 01:17:26;;;;;;;5.90;4.80;;;;;;;-148.82;100.00;60434.72;5041340;28;20222;-69
2023/10/14 01:19:54;;;;;;;5.00;4.60;;;;;;;-148.82;100.00;60434.72;5027365;28;20722;-71
2023/10/14 01:22:23;;;;;;;5.57;5.00;;;;;;;-148.82;100.00;60434.72;5057361;28;20282;-70
2023/10/14 01:24:54;;;;;;;6.87;5.13;;;;;;;-148.82;100.00;60434.72;5053671;28;20235;-71
2023/10/14 01:27:24;;;;;;;12.13;5.33;;;;;;;-148.82;100.00;60434.72;5018527;28;20350;-71
2023/10/14 01:29:52;;;;;;;5.70;5.00;;;;;;;-148.82;100.00;60434.72;4989458;28;20213;-71
2023/10/14 01:32:42;;;;;;;8.43;5.00;;;;;;;;;;5057279;28;20701;-71
2023/10/14 01:35:22;;;;;;;5.60;5.00;;;;;;;-148.82;100.00;60434.72;5036307;28;20329;-70
2023/10/14 01:41:30;;;;;;;14.00;4.93;;;;;;;-148.82;100.00;60434.72;4994980;28;20219;-71
2023/10/14 01:43:59;;;;;;;6.23;5.43;;;;;;;-148.82;100.00;60434.72;5029103;28;20753;-70
2023/10/14 01:46:27;;;;;;;7.43;5.17;;;;;;;-148.82;100.00;60434.72;5032562;28;20211;-66
2023/10/14 01:48:55;;;;;;;6.50;5.30;;;;;;;-148.82;100.00;60434.72;5031473;28;20314;-73
2023/10/14 01:51:25;;;;;;;8.23;4.60;;;;;;;-148.82;100.00;60434.72;5030646;28;20274;-72
2023/10/14 01:53:52;;;;;;;5.07;4.40;;;;;;;-148.82;100.00;60434.72;5028709;28;20200;-71
2023/10/14 01:56:20;;;;;;;6.67;4.60;;;;;;;-148.82;100.00;60434.72;5030543;28;20277;-71
2023/10/14 01:58:57;;;;;;;6.80;4.80;;;;;;;-148.82;100.00;60434.72;5026727;28;20778;-71
2023/10/14 02:01:27;;;;;;;5.43;4.67;;;;;;;-148.82;100.00;60434.72;5027300;28;20317;-70
2023/10/14 02:03:56;;;;;;;11.30;5.33;;;;;;;-148.82;100.00;60434.72;5028586;28;20623;-71
2023/10/14 02:06:26;;;;;;;6.00;4.60;;;;;;;-148.82;100.00;60434.72;5032690;28;20199;-72
2023/10/14 02:08:58;;;;;;;5.07;4.57;;;;;;;-148.82;100.00;60434.72;5030200;28;20289;-67
2023/10/14 02:11:32;;;;;;;5.93;4.87;;;;;;;-148.82;100.00;60434.72;5026678;28;20273;-65
2023/10/14 02:14:06;;;;;;;6.53;4.87;;;;;;;-148.82;100.00;60434.72;5032176;28;20871;-67
2023/10/14 02:16:42;;;;;;;6.03;4.90;;;;;;;-148.82;100.00;60434.72;5027660;28;20199;-71
2023/10/14 02:19:21;;;;;;;5.27;4.80;;;;;;;-148.82;100.00;60434.72;5029870;28;20238;-71
2023/10/14 02:21:57;;;;;;;8.37;4.83;;;;;;;-148.82;100.00;60434.72;5030566;28;20282;-70
2023/10/14 02:24:27;;;;;;;5.37;4.80;;;;;;;-148.82;100.00;60434.72;5027770;28;20196;-72
2023/10/14 02:26:56;;;;;;;8.23;5.80;;;;;;;;;;5028353;28;20204;-70
2023/10/14 02:29:26;;;;;;;5.07;4.57;;;;;;;-148.82;100.00;60434.72;5031614;28;20226;-70
2023/10/14 02:31:53;;;;;;;5.23;4.73;;;;;;;-148.82;100.00;60434.72;5028275;28;20231;-72
2023/10/14 02:34:21;;;;;;;7.87;4.60;;;;;;;-148.82;100.00;60434.72;5029130;28;20218;-70
2023/10/14 02:36:51;;;;;;;4.73;4.30;;;;;;;-148.82;100.00;60434.72;5029128;28;20196;-70
2023/10/14 02:39:26;;;;;;;5.33;4.63;;;;;;;;;;5032760;28;20251;-70
2023/10/14 02:41:59;;;;;;;5.40;4.90;;;;;;;-148.82;100.00;60434.72;5032702;28;20226;-70
2023/10/14 02:44:31;;;;;;;6.83;5.83;;;;;;;-148.82;100.00;60434.72;5029458;28;20695;-72
2023/10/14 02:47:04;;;;;;;5.30;4.33;;;;;;;-148.82;100.00;60434.72;5028182;28;20207;-69
2023/10/14 02:49:37;;;;;;;5.10;4.60;;;;;;;-148.82;100.00;60434.72;5033120;28;20247;-70
2023/10/14 02:52:10;;;;;;;5.63;4.60;;;;;;;-148.82;100.00;60434.72;5029409;28;20231;-71
2023/10/14 02:54:42;;;;;;;5.93;4.70;;;;;;;-148.82;100.00;60434.72;5026475;28;20652;-72
2023/10/14 02:57:13;;;;;;;5.87;4.00;;;;;;;-148.82;100.00;60434.72;5026440;28;20290;-69
2023/10/14 02:59:48;;;;;;;6.03;4.87;;;;;;;-148.82;100.00;60434.72;5030521;28;20238;-71
2023/10/14 03:02:16;;;;;;;4.73;4.27;;;;;;;;;;5027349;28;20200;-70
2023/10/14 03:04:48;;;;;;;4.60;4.20;;;;;;;-148.82;100.00;60434.72;5031849;28;20717;-72
2023/10/14 03:07:25;;;;;;;6.57;4.47;;;;;;;-148.82;100.00;60434.72;5025969;28;20204;-71
2023/10/14 03:09:52;;;;;;;6.70;4.40;;;;;;;-148.82;100.00;60434.72;5029741;28;20241;-70
2023/10/14 03:12:21;;;;;;;4.93;4.53;;;;;;;-148.82;100.00;60434.72;5028676;28;20228;-71
2023/10/14 03:14:52;;;;;;;5.50;5.00;;;;;;;-148.82;100.00;60434.72;5029359;28;20254;-70
2023/10/14 03:17:24;;;;;;;4.93;4.33;;;;;;;-148.82;100.00;60434.72;5028092;28;20287;-72
2023/10/14 03:20:06;;;;;;;6.10;5.10;;;;;;;-148.82;100.00;60434.72;5026419;28;20227;-70
2023/10/14 03:22:34;;;;;;;6.13;4.43;;;;;;;-148.82;100.00;60434.72;5025745;28;20195;-68
2023/10/14 03:25:07;;;;;;;6.93;4.27;;;;;;;-148.82;100.00;60434.72;5029054;28;20211;-67
2023/10/14 03:27:39;;;;;;;5.63;4.40;;;;;;;-148.82;100.00;60434.72;5029516;28;20242;-68
2023/10/14 03:30:11;;;;;;;5.20;4.70;;;;;;;-148.82;100.00;60434.72;5024895;28;20201;-70
2023/10/14 03:32:42;;;;;;;5.97;4.80;;;;;;;-148.82;100.00;60434.72;5031800;28;20231;-69
2023/10/14 03:35:12;;;;;;;5.63;4.50;;;;;;;-148.82;100.00;60434.72;5025095;28;20463;-68
2023/10/14 03:37:52;;;;;;;10.50;4.60;;;;;;;-148.82;100.00;60434.72;5027271;28;20547;-69
2023/10/14 03:40:51;;;;;;;5.97;4.67;;;;;;;-148.82;100.00;60434.72;5027239;28;20754;-69
2023/10/14 03:43:19;;;;;;;6.83;4.73;;;;;;;-148.82;100.00;60434.72;5032674;28;20478;-70
2023/10/14 03:45:56;;;;;;;6.80;4.90;;;;;;;-148.82;100.00;60434.72;5033447;28;20673;-68
2023/10/14 03:48:27;;;;;;;5.27;4.70;;;;;;;-148.82;100.00;60434.72;5028600;28;20257;-70
2023/10/14 03:51:02;;;;;;;5.07;4.40;;;;;;;-148.82;100.00;60434.72;5026571;28;20204;-71
2023/10/14 03:53:32;;;;;;;4.77;4.33;;;;;;;-148.82;100.00;60434.72;5027658;28;20231;-69
2023/10/14 03:56:00;;;;;;;5.57;4.73;;;;;;;-148.82;100.00;60434.72;5025845;28;20223;-70
2023/10/14 03:58:30;;;;;;;7.40;4.40;;;;;;;-148.82;100.00;60434.72;5028751;28;20289;-70
2023/10/14 04:01:02;;;;;;;5.10;4.47;;;;;;;-148.82;100.00;60434.72;5030628;28;20199;-70
2023/10/14 04:03:43;;;;;;;6.07;4.40;;;;;;;-148.82;100.00;60434.72;5036019;28;20200;-68
2023/10/14 04:06:14;;;;;;;7.17;4.57;;;;;;;-148.82;100.00;60434.72;5034047;28;20219;-70
2023/10/14 04:08:47;;;;;;;5.07;4.43;;;;;;;-148.82;100.00;60434.72;5034115;28;20239;-71
2023/10/14 04:11:17;;;;;;;4.97;4.47;;;;;;;-148.82;100.00;60434.72;5032899;28;20204;-69
2023/10/14 04:13:58;;;;;;;5.20;4.37;;;;;;;-148.82;100.00;60434.72;5034702;28;20712;-71
2023/10/14 04:16:48;;;;;;;4.60;4.20;;;;;;;-148.82;100.00;60434.72;5031454;28;20196;-70
2023/10/14 04:19:26;;;;;;;6.80;3.93;;;;;;;-148.82;100.00;60434.72;5024679;28;20269;-70
2023/10/14 04:21:59;;;;;;;5.50;4.97;;;;;;;-148.82;100.00;60434.72;5033639;28;20230;-71
2023/10/14 04:24:45;;;;;;;9.07;4.40;;;;;;;-148.82;100.00;60434.72;5032766;28;20200;-71
2023/10/14 04:27:21;;;;;;;4.30;4.00;;;;;;;-148.82;100.00;60434.72;5029334;28;20231;-68
2023/10/14 04:29:57;;;;;;;4.47;4.10;;;;;;;-148.82;100.00;60434.72;5035906;28;20809;-71
2023/10/14 04:32:27;;;;;;;5.27;4.60;;;;;;;-148.82;100.00;60434.72;5033245;28;20586;-70
2023/10/14 04:34:57;;;;;;;5.00;4.60;;;;;;;-148.82;100.00;60434.72;5030847;28;20221;-72
2023/10/14 04:37:36;;;;;;;4.83;4.30;;;;;;;-148.82;100.00;60434.72;5031828;28;20210;-72
2023/10/14 04:40:16;;;;;;;9.67;4.97;;;;;;;-148.82;100.00;60434.72;5036656;28;20488;-70
2023/10/14 04:42:44;;;;;;;4.97;4.57;;;;;;;-148.82;100.00;60434.72;5036325;28;20215;-70
2023/10/14 04:45:14;;;;;;;8.63;4.70;;;;;;;-148.82;100.00;60434.72;5035037;28;20337;-70
2023/10/14 04:47:47;;;;;;;9.23;4.87;;;;;;;-148.82;100.00;60434.72;5032955;28;20540;-69
2023/10/14 04:50:15;;;;;;;4.97;4.47;;;;;;;-148.82;100.00;60434.72;5031828;28;20204;-70
2023/10/14 04:52:48;;;;;;;5.03;4.63;;;;;;;-148.82;100.00;60434.72;5032675;28;20297;-70
2023/10/14 04:55:25;;;;;;;5.77;5.20;;;;;;;-148.82;100.00;60434.72;5029390;28;20196;-69
2023/10/14 04:58:09;;;;;;;7.57;4.80;;;;;;;-148.82;100.00;60434.72;5032337;28;20622;-71
2023/10/14 05:00:41;;;;;;;5.70;4.57;;;;;;;-148.82;100.00;60434.72;5035676;28;20207;-69
2023/10/14 05:03:13;;;;;;;5.40;4.27;;;;;;;-148.82;100.00;60434.72;5028305;28;20208;-69
2023/10/14 05:05:43;;;;;;;5.33;4.47;;;;;;;-148.82;100.00;60434.72;5031878;28;20200;-70
2023/10/14 05:08:15;;;;;;;5.60;4.97;;;;;;;-148.82;100.00;60434.72;5030380;28;20298;-68
2023/10/14 05:10:44;;;;;;;7.73;4.80;;;;;;;-148.82;100.00;60434.72;5034458;28;20204;-70
2023/10/14 05:13:13;;;;;;;5.03;4.60;;;;;;;-148.82;100.00;60434.72;5028938;28;20228;-69
2023/10/14 05:15:42;;;;;;;5.03;4.63;;;;;;;-148.82;100.00;60434.72;5027397;28;20200;-68
2023/10/14 05:18:16;;;;;;;6.50;5.17;;;;;;;-148.82;100.00;60434.72;5031270;28;20221;-70
2023/10/14 05:21:03;;;;;;;12.23;5.30;;;;;;;-148.82;100.00;60434.72;5037077;28;20207;-69
2023/10/14 05:23:32;;;;;;;5.10;4.33;;;;;;;-148.82;100.00;60434.72;5033664;28;20196;-72
2023/10/14 05:26:06;;;;;;;6.03;4.43;;;;;;;-148.82;100.00;60434.72;5032880;28;20442;-70
2023/10/14 05:28:36;;;;;;;6.27;4.73;;;;;;;-148.82;100.00;60434.72;5033429;28;20310;-69
2023/10/14 05:31:08;;;;;;;10.97;5.13;;;;;;;-148.82;100.00;60434.72;5031404;28;20199;-70
2023/10/14 05:33:37;;;;;;;5.47;4.73;;;;;;;-148.82;100.00;60434.72;5034519;28;20765;-72
2023/10/14 05:36:06;;;;;;;4.73;4.33;;;;;;;-148.82;100.00;60434.72;5032310;28;20262;-71
2023/10/14 05:38:33;;;;;;;6.90;4.87;;;;;;;-148.82;100.00;60434.72;5032647;28;20309;-72
2023/10/14 05:41:06;;;;;;;6.03;5.07;;;;;;;-148.82;100.00;60434.72;5028032;28;20651;-70
2023/10/14 05:43:34;;;;;;;7.37;5.43;;;;;;;-148.82;100.00;60434.72;5029978;28;20210;-71
2023/10/14 05:46:08;;;;;;;6.67;6.07;;;;;;;-148.82;100.00;60434.72;5030071;28;20239;-70
2023/10/14 05:48:37;;;;;;;6.40;4.93;;;;;;;-148.82;100.00;60434.72;5026654;28;20219;-70
2023/10/14 05:51:05;;;;;;;6.90;5.63;;;;;;;-148.82;100.00;60434.72;5031933;28;20973;-72
2023/10/14 05:53:32;;;;;;;5.17;4.67;;;;;;;-148.82;100.00;60434.72;5032466;28;20243;-70
2023/10/14 05:56:09;;;;;;;11.13;5.40;;;;;;;-148.82;100.00;60434.72;5028586;28;20302;-69
2023/10/14 05:58:38;;;;;;;4.80;4.47;;;;;;;-148.82;100.00;60434.72;5030074;28;20224;-69
2023/10/14 06:01:10;;;;;;;7.37;4.53;;;;;;;-148.82;100.00;60434.72;5027920;28;20195;-70
2023/10/14 06:03:40;;;;;;;7.10;5.57;;;;;;;-148.82;100.00;60434.72;5029670;28;20583;-71
2023/10/14 06:06:09;;;;;;;7.00;4.87;;;;;;;-148.82;100.00;60434.72;5033333;28;20199;-69
2023/10/14 06:08:37;;;;;;;5.60;5.20;;;;;;;-148.82;100.00;60434.72;5031530;28;20306;-69
2023/10/14 06:11:06;;;;;;;8.40;5.43;;;;;;;-148.82;100.00;60434.72;5030543;28;20208;-70
2023/10/14 06:13:33;;;;;;;7.90;6.97;;;;;;;-148.82;100.00;60434.72;5031572;28;20307;-71
2023/10/14 06:16:04;;;;;;;6.03;4.67;;;;;;;-148.82;100.00;60434.72;5028320;28;20201;-70
2023/10/14 06:18:32;;;;;;;6.53;4.83;;;;;;;-148.82;100.00;60434.72;5028675;28;20224;-72
2023/10/14 06:21:01;;;;;;;5.20;4.40;;;;;;;-148.82;100.00;60434.72;5031206;28;20231;-70
2023/10/14 06:23:29;;;;;;;5.53;4.87;;;;;;;-148.82;100.00;60434.72;5029882;28;20262;-70
2023/10/14 06:25:56;;;;;;;6.33;4.90;;;;;;;-148.82;100.00;60434.72;5029980;28;20197;-71
2023/10/14 06:28:24;;;;;;;9.73;6.17;;;;;;;-148.82;100.00;60434.72;5030058;28;20223;-72
2023/10/14 06:30:53;;;;;;;4.87;4.47;;;;;;;-148.82;100.00;60434.72;5030347;28;20690;-71
2023/10/14 06:33:26;;;;;;;8.13;5.10;;;;;;;-148.82;100.00;60434.72;5031616;28;21128;-72
2023/10/14 06:35:54;;;;;;;9.47;5.00;;;;;;;-148.82;100.00;60434.72;5029298;28;20212;-72
2023/10/14 06:38:23;;;;;;;5.33;4.83;;;;;;;-148.82;100.00;60434.72;5032491;28;20239;-70
2023/10/14 06:40:53;;;;;;;5.50;5.00;;;;;;;-148.82;100.00;60434.72;5035687;28;20226;-69
2023/10/14 06:43:22;;;;;;;6.80;6.10;;;;;;;-148.82;100.00;60434.72;5033506;28;20658;-70
2023/10/14 06:45:54;;;;;;;5.90;5.40;;;;;;;-148.82;100.00;60434.72;5030093;28;20575;-73
2023/10/14 06:48:21;;;;;;;5.83;5.20;;;;;;;-148.82;100.00;60434.72;5032092;28;20667;-69
2023/10/14 06:50:49;;;;;;;6.27;5.43;;;;;;;-148.82;100.00;60434.72;5033573;28;20212;-69
2023/10/14 06:53:18;;;;;;;5.50;5.10;;;;;;;-148.82;100.00;60434.72;5028270;28;20318;-73
2023/10/14 06:55:49;;;;;;;5.17;4.67;;;;;;;-148.82;100.00;60434.72;5031167;28;20291;-70
2023/10/14 06:58:18;;;;;;;5.37;4.87;;;;;;;-148.82;100.00;60434.72;5027824;28;20981;-72
2023/10/14 07:00:48;;;;;;;5.20;4.80;;;;;;;-148.82;100.00;60434.72;5029469;28;20232;-70
2023/10/14 07:03:16;;;;;;;5.53;5.10;;;;;;;-148.82;100.00;60434.72;5029298;28;20207;-70
2023/10/14 07:05:48;;;;;;;5.03;4.57;;;;;;;-148.82;100.00;60434.72;5028409;28;20208;-71
2023/10/14 07:08:19;;;;;;;6.07;4.97;;;;;;;-148.82;100.00;60434.72;5028822;28;20220;-70
2023/10/14 07:10:50;;;;;;;10.13;5.43;;;;;;;-148.82;100.00;60434.72;5030718;28;20299;-72
2023/10/14 07:13:19;;;;;;;5.17;4.73;;;;;;;-148.82;100.00;60434.72;5028727;28;20214;-70
2023/10/14 07:15:47;;;;;;;5.87;5.23;;;;;;;-148.82;100.00;60434.72;5032127;28;20219;-70
2023/10/14 07:18:14;;;;;;;5.30;4.50;;;;;;;-148.82;100.00;60434.72;5027337;28;20227;-69
2023/10/14 07:20:42;;;;;;;4.77;4.47;;;;;;;-148.82;100.00;60434.72;5029770;28;20220;-72
2023/10/14 07:23:10;;;;;;;7.57;4.30;;;;;;;-148.82;100.00;60434.72;5032003;28;20327;-70
2023/10/14 07:25:40;;;;;;;4.60;4.20;;;;;;;-148.82;100.00;60434.72;5030130;28;20265;-71
2023/10/14 07:28:13;;;;;;;5.60;4.33;;;;;;;-148.82;100.00;60434.72;5026587;28;20297;-70
2023/10/14 07:30:46;;;;;;;4.20;3.90;;;;;;;-148.82;100.00;60434.72;5027748;28;20207;-70
2023/10/14 07:33:14;;;;;;;3.47;3.20;;;;;;;-148.82;100.00;60434.72;5029725;28;20206;-71
2023/10/14 07:35:42;;;;;;;4.63;3.70;;;;;;;-148.82;100.00;60434.72;5028881;28;20204;-71
2023/10/14 07:38:10;;;;;;;3.73;3.17;;;;;;;-148.82;100.00;60434.72;5027637;28;20235;-73
2023/10/14 07:40:38;;;;;;;4.97;3.53;;;;;;;-148.82;100.00;60434.72;5029565;28;20215;-68
2023/10/14 07:43:10;;;;;;;4.13;3.77;;;;;;;-148.82;100.00;60434.72;5029589;28;20212;-71
2023/10/14 07:45:42;;;;;;;3.03;2.83;;;;;;;-148.82;100.00;60434.72;5031635;28;21038;-70
2023/10/14 07:48:11;;;;;;;3.67;3.37;;;;;;;-148.82;100.00;60434.72;5026168;28;20231;-71
2023/10/14 07:50:40;;;;;;;3.80;2.77;;;;;;;-148.82;100.00;60434.72;5028779;28;20877;-72
2023/10/14 07:53:12;;;;;;;2.93;2.73;;;;;;;-148.82;100.00;60434.72;5027637;28;20211;-70
2023/10/14 07:55:40;;;;;;;7.83;3.73;;;;;;;-148.82;100.00;60434.72;5028223;28;20728;-70
2023/10/14 07:58:10;;;;;;;2.57;2.37;;;;;;;-148.82;100.00;60434.72;5029127;28;20255;-70
2023/10/14 08:00:39;;;;;;;3.50;3.30;;;;;;;-148.82;100.00;60434.72;5030216;28;20207;-70
2023/10/14 08:03:09;;;;;;;4.57;3.13;;;;;;;-148.82;100.00;60434.72;5028670;28;20214;-70
2023/10/14 08:05:38;;;;;;;3.37;3.07;;;;;;;-148.82;100.00;60434.72;5031489;28;20635;-70
2023/10/14 08:08:09;;;;;;;3.80;3.23;;;;;;;-148.82;100.00;60434.72;5027666;28;20269;-71
2023/10/14 08:10:38;;;;;;;3.00;2.80;;;;;;;-148.82;100.00;60434.72;5028156;28;20223;-70
2023/10/14 08:13:06;;;;;;;3.33;3.10;;;;;;;-148.82;100.00;60434.72;5032440;28;20245;-70
2023/10/14 08:15:37;;;;;;;3.67;3.30;;;;;;;-148.82;100.00;60434.72;5025297;28;20230;-71
2023/10/14 08:18:05;;;;;;;4.20;3.30;;;;;;;-148.82;100.00;60434.72;5027861;28;20697;-72
2023/10/14 08:20:33;;;;;;;3.60;3.33;;;;;;;-148.82;100.00;60434.72;5028112;28;20293;-69
2023/10/14 08:23:02;;;;;;;3.70;2.37;;;;;;;-148.82;100.00;60434.72;5029140;28;20691;-68
2023/10/14 08:25:30;;;;;;;5.00;2.87;;;;;;;-148.82;100.00;60434.72;5029838;28;20207;-69
2023/10/14 08:28:00;;;;;;;4.77;3.00;;;;;;;-148.82;100.00;60434.72;5027442;28;20362;-70
2023/10/14 08:30:32;;;;;;;2.93;2.77;;;;;;;-148.82;100.00;60434.72;5028276;28;20315;-69
2023/10/14 08:33:02;;;;;;;3.90;3.50;;;;;;;-148.82;100.00;60434.72;5026989;28;20208;-69
2023/10/14 08:35:30;;;;;;;4.17;2.87;;;;;;;-148.82;100.00;60434.72;5028375;28;21539;-68
2023/10/14 08:37:59;;;;;;;3.00;2.77;;;;;;;-148.82;100.00;60434.72;5029002;28;20624;-70
2023/10/14 08:40:29;;;;;;;3.93;2.83;;;;;;;-148.82;100.00;60434.72;5030020;28;20285;-68
2023/10/14 08:43:02;;;;;;;2.53;2.43;;;;;;;-148.82;100.00;60434.72;5029559;28;20719;-67
2023/10/14 08:45:30;;;;;;;3.40;3.17;;;;;;;-148.82;100.00;60434.72;5030485;28;20291;-70
2023/10/14 08:47:59;;;;;;;4.47;2.90;;;;;;;-148.82;100.00;60434.72;5033778;28;20326;-70
2023/10/14 08:50:32;;;;;;;9.23;2.80;;;;;;;-148.82;100.00;60434.72;5030194;28;20227;-71
2023/10/14 08:53:02;;;;;;;2.57;2.37;;;;;;;-148.82;100.00;60434.72;5035872;28;20576;-70
2023/10/14 08:55:32;;;;;;;3.37;2.93;;;;;;;-148.82;100.00;60434.72;5029224;28;20220;-70
2023/10/14 08:58:04;;;;;;;4.70;2.63;;;;;;;-148.82;100.00;60434.72;5031510;28;20223;-68
2023/10/14 09:00:36;;;;;;;2.40;2.20;;;;;;;-148.82;100.00;60434.72;5029776;28;20598;-73
2023/10/14 09:03:06;;;;;;;2.70;2.50;;;;;;;-148.82;100.00;60434.72;5031861;28;20196;-68
2023/10/14 09:05:39;;;;;;;2.43;2.23;;;;;;;-148.82;100.00;60434.72;5030035;28;20214;-72
2023/10/14 09:08:09;;;;;;;3.70;2.47;;;;;;;-148.82;100.00;60434.72;5033752;28;20404;-69
2023/10/14 09:10:37;;;;;;;2.40;2.30;;;;;;;-148.82;100.00;60434.72;5031973;28;20300;-69
2023/10/14 09:13:08;;;;;;;2.77;2.57;;;;;;;-148.82;100.00;60434.72;5032194;28;20196;-72
2023/10/14 09:15:39;;;;;;;2.83;2.20;;;;;;;-148.82;100.00;60434.72;5030438;28;20231;-70
2023/10/14 09:18:12;;;;;;;2.40;2.20;;;;;;;-148.82;100.00;60434.72;5030526;28;20216;-70
2023/10/14 09:20:42;;;;;;;2.23;2.00;;;;;;;-148.82;100.00;60434.72;5032215;28;20205;-69
2023/10/14 09:23:18;;;;;;;2.93;2.10;;;;;;;-148.82;100.00;60434.72;5030546;28;20265;-69
2023/10/14 09:25:49;;;;;;;2.50;2.17;;;;;;;-148.82;100.00;60434.72;5032176;28;20569;-68
2023/10/14 09:28:20;;;;;;;2.63;2.10;;;;;;;-148.82;100.00;60434.72;5031068;28;20227;-72
2023/10/14 09:30:50;;;;;;;3.17;2.40;;;;;;;-148.82;100.00;60434.72;5024912;28;20303;-69
2023/10/14 09:33:27;;;;;;;2.30;2.13;;;;;;;-148.82;100.00;60434.72;5029475;28;20218;-67
2023/10/14 09:35:59;;;;;;;4.03;2.20;;;;;;;-148.82;100.00;60434.72;5031559;28;20231;-71
2023/10/14 09:44:43;;;;;;;2.50;1.73;;;;;;;31.35;100.00;60434.72;5419886;23;20305;-71
2023/10/14 09:47:13;;;;;;;2.20;1.90;;;;;;;-148.82;100.00;60434.72;4882519;29;20239;-71
2023/10/14 09:49:42;;;;;;;3.60;1.87;;;;;;;21.56;nan;96339.47;4909194;29;20239;-75
2023/10/14 09:52:14;;;;;;;;;;;;;;;19.45;nan;96338.25;4918454;29;20060;-69
2023/10/14 09:54:42;;;;;;;;;;;;;;;19.06;nan;96342.88;4916259;29;19930;-67
2023/10/14 09:57:12;;;;;;;;;;;;;;;18.87;nan;96333.63;4913018;29;19931;-67
2023/10/14 09:59:41;;;;;;;;;;;;;;;18.72;nan;96335.09;4915785;29;20558;-68
2023/10/14 10:02:09;;;;;;;;;;;;;;;18.55;nan;96343.28;4921555;29;20349;-67
2023/10/14 10:04:38;;;;;;;;;;;;;;;18.56;nan;96339.56;4914903;29;19953;-69
2023/10/14 10:07:11;;;;;;;;;;;;;;;18.60;nan;96338.00;4922657;29;20257;-69
2023/10/14 10:09:49;;;;;;;;;;;;;;;18.54;nan;96324.78;4918433;29;19933;-68
2023/10/14 10:12:20;;;;;;;;;;;;;;;18.61;nan;96336.94;4919327;29;19947;-67
2023/10/14 10:14:58;;;;;;;;;;;;;;;18.55;nan;96326.41;4914423;29;20658;-69
2023/10/14 10:17:26;;;;;;;;;;;;;;;18.51;nan;96331.47;4916354;29;20167;-67
2023/10/14 10:20:03;;;;;;;;;;;;;;;18.41;nan;96318.81;4922223;29;19922;-68
2023/10/14 10:22:41;;;;;;;;;;;;;;;18.37;nan;96320.34;4921794;29;19937;-69
2023/10/14 10:25:11;;;;;;;;;;;;;;;18.30;nan;96334.00;4918535;29;20000;-68
2023/10/14 10:27:40;;;;;;;;;;;;;;;18.23;nan;96336.88;4917170;29;19934;-69
2023/10/14 10:30:11;;;;;;;;;;;;;;;18.04;nan;96324.91;4918269;29;20320;-69
2023/10/14 10:32:41;;;;;;;;;;;;;;;18.09;nan;96327.63;4919456;29;19928;-70
2023/10/14 10:35:19;;;;;;;;;;;;;;;18.22;nan;96316.47;4915014;29;19981;-69
2023/10/14 10:37:50;;;;;;;;;;;;;;;18.28;nan;96325.38;4910638;29;19927;-70
2023/10/14 10:40:22;;;;;;;;;;;;;;;18.63;nan;96317.88;4913882;29;19927;-67
2023/10/14 10:42:54;;;;;;;;;;;;;;;19.21;nan;96309.94;4918440;29;20402;-68
2023/10/14 10:45:22;;;;;;;;;;;;;;;19.52;nan;96306.59;4913752;29;19931;-68
2023/10/14 10:47:51;;;;;;;;;;;;;;;19.34;nan;96307.88;4918078;29;19931;-69
2023/10/14 10:50:19;;;;;;;;;;;;;;;19.47;nan;96310.06;4918824;29;19929;-67
2023/10/14 10:52:54;;;;;;;;;;;;;;;18.90;nan;96330.41;4898862;29;19938;-67
2023/10/14 10:55:23;;;;;;;;;;;;;;;18.70;nan;96334.56;4894752;29;19949;-65
2023/10/14 10:57:57;;;;;;;;;;;;;;;18.61;nan;96334.25;4904997;29;19923;-67
2023/10/14 11:00:25;;;;;;;;;;;;;;;18.61;nan;96352.19;4905795;29;19927;-67
2023/10/14 11:02:54;;;;;;;;;;;;;;;18.79;nan;96353.69;4906635;29;19931;-67
2023/10/14 11:05:24;;;;;;;;;;;;;;;18.48;nan;96348.88;4911804;29;20298;-68
2023/10/14 11:07:52;;;;;;;;;;;;;;;18.45;nan;96359.31;4906074;29;19926;-68
2023/10/14 11:10:22;;;;;;;;;;;;;;;18.21;nan;96357.75;4904661;29;19923;-70
2023/10/14 11:12:50;;;;;;;;;;;;;;;17.74;nan;96361.78;4912905;29;19981;-68
2023/10/14 11:15:22;;;;;;;;;;;;;;;17.30;nan;96365.28;4907186;29;19931;-68
2023/10/14 11:17:53;;;;;;;;;;;;;;;17.16;nan;96358.63;4910232;29;19923;-67
2023/10/14 11:20:21;;;;;;;;;;;;;;;17.31;nan;96372.25;4910915;29;19927;-67
2023/10/14 11:22:49;;;;;;;;;;;;;;;16.98;nan;96381.94;4901037;29;19922;-71
2023/10/14 11:25:18;;;;;;;;;;;;;;;16.95;nan;96374.38;4908564;29;21151;-67
2023/10/14 11:27:54;;;;;;;;;;;;;;;16.79;nan;96362.63;4903113;29;19934;-69
2023/10/14 11:30:25;;;;;;;;;;;;;;;16.54;nan;96368.38;4909532;29;20731;-68
2023/10/14 11:32:53;;;;;;;;;;;;;;;15.52;nan;96377.72;4904681;29;19951;-68
2023/10/14 11:35:22;;;;;;;;;;;;;;;15.21;nan;96390.41;4906744;29;19923;-68
2023/10/14 11:37:50;;;;;;;;;;;;;;;14.72;nan;96396.75;4897597;29;19927;-69
2023/10/14 11:40:26;;;;;;;;;;;;;;;14.53;nan;96401.34;4902452;29;19923;-68
2023/10/14 11:42:54;;;;;;;;;;;;;;;14.40;nan;96398.88;4903898;29;19934;-69
2023/10/14 11:45:24;;;;;;;;;;;;;;;14.21;nan;96403.44;4900726;29;20481;-69
2023/10/14 11:47:52;;;;;;;;;;;;;;;14.19;nan;96403.66;4901959;29;19930;-68
2023/10/14 11:50:19;;;;;;;;;;;;;;;14.08;nan;96402.56;4904337;29;19923;-69
2023/10/14 11:52:48;;;;;;;;;;;;;;;14.07;nan;96408.94;4898282;29;20619;-69
2023/10/14 11:55:15;;;;;;;;;;;;;;;14.01;nan;96400.00;4896999;29;20408;-68
2023/10/14 11:57:43;;;;;;;;;;;;;;;14.02;nan;96401.63;4901608;29;19931;-70
2023/10/14 12:00:11;;;;;;;;;;;;;;;13.95;nan;96395.56;4903172;29;19931;-68
2023/10/14 12:02:40;;;;;;;;;;;;;;;13.80;nan;96401.28;4900819;29;19927;-69